sensor_id;sensor_type;location;lat;lon;timestamp;pressure;altitude;pressure_sealevel;temperature;humidity
52735;BME280;38631;47.572;10.704;2023-02-16T00:00:28;93494.28;;;-0.02;82.97
52735;BME280;38631;47.572;10.704;2023-02-16T00:02:54;93496.97;;;-0.33;84.43
52735;BME280;38631;47.572;10.704;2023-02-16T00:05:25;93496.31;;;-0.04;83.37
52735;BME280;38631;47.572;10.704;2023-02-16T00:07:52;93493.44;;;-0.20;83.05
52735;BME280;38631;47.572;10.704;2023-02-16T00:10:18;93499.22;;;-0.62;84.15
52735;BME280;38631;47.572;10.704;2023-02-16T00:12:43;93488.34;;;-0.34;84.15
52735;BME280;38631;47.572;10.704;2023-02-16T00:15:27;93483.91;;;-0.58;84.11
52735;BME280;38631;47.572;10.704;2023-02-16T00:17:54;93488.06;;;-0.51;84.85
52735;BME280;38631;47.572;10.704;2023-02-16T00:20:19;93480.63;;;-0.22;83.98
52735;BME280;38631;47.572;10.704;2023-02-16T00:22:45;93478.50;;;-0.32;83.27
52735;BME280;38631;47.572;10.704;2023-02-16T00:25:10;93482.50;;;-0.11;83.68
52735;BME280;38631;47.572;10.704;2023-02-16T00:27:36;93474.91;;;-0.12;83.89
52735;BME280;38631;47.572;10.704;2023-02-16T00:30:02;93468.53;;;0.02;81.87
52735;BME280;38631;47.572;10.704;2023-02-16T00:32:29;93476.22;;;-0.03;82.77
52735;BME280;38631;47.572;10.704;2023-02-16T00:34:55;93473.19;;;0.00;83.08
52735;BME280;38631;47.572;10.704;2023-02-16T00:37:20;93461.75;;;-0.24;83.32
52735;BME280;38631;47.572;10.704;2023-02-16T00:39:45;93466.13;;;-0.43;83.25
52735;BME280;38631;47.572;10.704;2023-02-16T00:42:18;93465.28;;;-0.37;83.50
52735;BME280;38631;47.572;10.704;2023-02-16T00:44:52;93468.56;;;-0.23;83.72
52735;BME280;38631;47.572;10.704;2023-02-16T00:49:44;93467.03;;;-0.81;86.10
52735;BME280;38631;47.572;10.704;2023-02-16T00:54:54;93466.97;;;-0.68;85.48
52735;BME280;38631;47.572;10.704;2023-02-16T00:57:19;93467.59;;;-0.72;84.47
52735;BME280;38631;47.572;10.704;2023-02-16T00:59:45;93469.88;;;-0.57;85.23
52735;BME280;38631;47.572;10.704;2023-02-16T01:02:11;93467.38;;;-0.71;84.35
52735;BME280;38631;47.572;10.704;2023-02-16T01:04:37;93464.50;;;-0.88;84.63
52735;BME280;38631;47.572;10.704;2023-02-16T01:07:09;93470.13;;;-0.66;83.91
52735;BME280;38631;47.572;10.704;2023-02-16T01:09:54;93469.19;;;-0.46;84.22
52735;BME280;38631;47.572;10.704;2023-02-16T01:12:38;93473.22;;;-0.50;83.63
52735;BME280;38631;47.572;10.704;2023-02-16T01:15:05;93463.84;;;-0.33;83.24
52735;BME280;38631;47.572;10.704;2023-02-16T01:17:34;93470.41;;;-0.74;84.40
52735;BME280;38631;47.572;10.704;2023-02-16T01:19:59;93481.00;;;-0.44;83.57
52735;BME280;38631;47.572;10.704;2023-02-16T01:22:24;93476.72;;;-0.38;83.03
52735;BME280;38631;47.572;10.704;2023-02-16T01:24:50;93472.19;;;-0.42;82.25
52735;BME280;38631;47.572;10.704;2023-02-16T01:27:16;93479.09;;;-0.30;82.98
52735;BME280;38631;47.572;10.704;2023-02-16T01:29:41;93479.13;;;-0.36;83.15
52735;BME280;38631;47.572;10.704;2023-02-16T01:32:10;93472.06;;;-0.29;82.47
52735;BME280;38631;47.572;10.704;2023-02-16T01:34:36;93468.97;;;-0.45;82.34
52735;BME280;38631;47.572;10.704;2023-02-16T01:37:02;93466.69;;;-0.59;82.95
52735;BME280;38631;47.572;10.704;2023-02-16T01:39:27;93466.25;;;-0.56;83.19
52735;BME280;38631;47.572;10.704;2023-02-16T01:42:12;93467.94;;;-0.44;83.84
52735;BME280;38631;47.572;10.704;2023-02-16T01:49:52;93464.88;;;-0.84;84.73
52735;BME280;38631;47.572;10.704;2023-02-16T01:52:33;93463.28;;;-0.60;83.82
52735;BME280;38631;47.572;10.704;2023-02-16T01:55:15;93456.38;;;-0.73;83.83
52735;BME280;38631;47.572;10.704;2023-02-16T01:57:53;93460.75;;;-0.48;83.49
52735;BME280;38631;47.572;10.704;2023-02-16T02:03:16;93456.88;;;-0.39;82.84
52735;BME280;38631;47.572;10.704;2023-02-16T02:06:01;93449.94;;;-0.27;82.43
52735;BME280;38631;47.572;10.704;2023-02-16T02:08:37;93456.19;;;-0.53;82.67
52735;BME280;38631;47.572;10.704;2023-02-16T02:11:11;93458.16;;;-0.73;83.01
52735;BME280;38631;47.572;10.704;2023-02-16T02:13:57;93456.78;;;-0.51;83.00
52735;BME280;38631;47.572;10.704;2023-02-16T02:16:26;93461.16;;;-0.45;82.75
52735;BME280;38631;47.572;10.704;2023-02-16T02:18:52;93446.56;;;-1.02;84.40
52735;BME280;38631;47.572;10.704;2023-02-16T02:22:11;93457.53;;;-0.69;84.24
52735;BME280;38631;47.572;10.704;2023-02-16T02:27:23;93444.31;;;-0.49;82.85
52735;BME280;38631;47.572;10.704;2023-02-16T02:32:48;93449.66;;;-0.62;83.41
52735;BME280;38631;47.572;10.704;2023-02-16T02:35:28;93449.50;;;-0.67;82.69
52735;BME280;38631;47.572;10.704;2023-02-16T02:40:40;93450.16;;;-0.78;82.25
52735;BME280;38631;47.572;10.704;2023-02-16T02:43:18;93436.06;;;-0.71;83.31
52735;BME280;38631;47.572;10.704;2023-02-16T02:48:22;93449.03;;;-0.82;82.53
52735;BME280;38631;47.572;10.704;2023-02-16T02:50:57;93448.72;;;-0.68;83.22
52735;BME280;38631;47.572;10.704;2023-02-16T02:53:45;93441.19;;;-0.57;82.76
52735;BME280;38631;47.572;10.704;2023-02-16T02:56:14;93447.41;;;-0.58;82.31
52735;BME280;38631;47.572;10.704;2023-02-16T02:59:05;93451.16;;;-0.73;82.21
52735;BME280;38631;47.572;10.704;2023-02-16T03:01:55;93459.44;;;-0.82;83.03
52735;BME280;38631;47.572;10.704;2023-02-16T03:04:25;93454.13;;;-0.69;82.53
52735;BME280;38631;47.572;10.704;2023-02-16T03:06:52;93454.81;;;-0.55;82.03
52735;BME280;38631;47.572;10.704;2023-02-16T03:09:20;93447.84;;;-0.61;82.37
52735;BME280;38631;47.572;10.704;2023-02-16T03:11:48;93446.28;;;-0.44;82.55
52735;BME280;38631;47.572;10.704;2023-02-16T03:14:43;93455.94;;;-0.45;81.88
52735;BME280;38631;47.572;10.704;2023-02-16T03:17:13;93463.69;;;-0.63;82.79
52735;BME280;38631;47.572;10.704;2023-02-16T03:20:00;93452.84;;;-0.60;82.19
52735;BME280;38631;47.572;10.704;2023-02-16T03:22:46;93450.25;;;-0.60;82.41
52735;BME280;38631;47.572;10.704;2023-02-16T03:25:33;93440.91;;;-0.49;82.64
52735;BME280;38631;47.572;10.704;2023-02-16T03:28:20;93443.47;;;-0.42;81.75
52735;BME280;38631;47.572;10.704;2023-02-16T03:31:07;93452.25;;;-0.62;82.30
52735;BME280;38631;47.572;10.704;2023-02-16T03:33:35;93454.75;;;-0.74;82.53
52735;BME280;38631;47.572;10.704;2023-02-16T03:36:01;93450.00;;;-0.58;81.69
52735;BME280;38631;47.572;10.704;2023-02-16T03:38:27;93455.28;;;-0.40;82.44
52735;BME280;38631;47.572;10.704;2023-02-16T03:40:53;93458.38;;;-0.50;81.64
52735;BME280;38631;47.572;10.704;2023-02-16T03:43:23;93460.75;;;-0.73;81.76
52735;BME280;38631;47.572;10.704;2023-02-16T03:45:49;93450.25;;;-0.85;82.50
52735;BME280;38631;47.572;10.704;2023-02-16T03:48:15;93455.69;;;-0.93;83.57
52735;BME280;38631;47.572;10.704;2023-02-16T03:50:40;93457.47;;;-1.19;84.72
52735;BME280;38631;47.572;10.704;2023-02-16T03:53:05;93448.31;;;-0.96;83.64
52735;BME280;38631;47.572;10.704;2023-02-16T03:55:42;93454.03;;;-1.13;85.09
52735;BME280;38631;47.572;10.704;2023-02-16T03:58:11;93452.25;;;-0.87;83.41
52735;BME280;38631;47.572;10.704;2023-02-16T04:00:37;93454.78;;;-0.80;82.89
52735;BME280;38631;47.572;10.704;2023-02-16T04:03:03;93454.28;;;-0.89;83.14
52735;BME280;38631;47.572;10.704;2023-02-16T04:05:29;93456.81;;;-1.07;82.74
52735;BME280;38631;47.572;10.704;2023-02-16T04:07:55;93467.59;;;-1.04;83.93
52735;BME280;38631;47.572;10.704;2023-02-16T04:10:20;93466.25;;;-0.81;83.34
52735;BME280;38631;47.572;10.704;2023-02-16T04:12:46;93468.16;;;-0.95;82.80
52735;BME280;38631;47.572;10.704;2023-02-16T04:15:14;93467.47;;;-1.16;83.54
52735;BME280;38631;47.572;10.704;2023-02-16T04:17:40;93467.50;;;-0.91;83.50
52735;BME280;38631;47.572;10.704;2023-02-16T04:20:09;93472.34;;;-1.26;83.85
52735;BME280;38631;47.572;10.704;2023-02-16T04:22:34;93475.25;;;-1.47;85.17
52735;BME280;38631;47.572;10.704;2023-02-16T04:25:00;93483.38;;;-1.31;84.36
52735;BME280;38631;47.572;10.704;2023-02-16T04:27:25;93479.09;;;-1.18;84.25
52735;BME280;38631;47.572;10.704;2023-02-16T04:29:50;93479.28;;;-1.13;84.10
52735;BME280;38631;47.572;10.704;2023-02-16T04:32:16;93475.28;;;-1.16;84.08
52735;BME280;38631;47.572;10.704;2023-02-16T04:34:41;93487.38;;;-1.28;83.70
52735;BME280;38631;47.572;10.704;2023-02-16T04:37:07;93479.84;;;-1.04;83.64
52735;BME280;38631;47.572;10.704;2023-02-16T04:39:32;93471.72;;;-0.90;83.98
52735;BME280;38631;47.572;10.704;2023-02-16T04:41:58;93470.50;;;-0.87;83.50
52735;BME280;38631;47.572;10.704;2023-02-16T04:44:23;93467.56;;;-0.97;83.85
52735;BME280;38631;47.572;10.704;2023-02-16T04:46:48;93470.44;;;-0.80;84.01
52735;BME280;38631;47.572;10.704;2023-02-16T04:49:14;93476.03;;;-0.77;84.09
52735;BME280;38631;47.572;10.704;2023-02-16T04:51:39;93465.47;;;-0.57;83.14
52735;BME280;38631;47.572;10.704;2023-02-16T04:54:05;93462.41;;;-0.79;82.89
52735;BME280;38631;47.572;10.704;2023-02-16T04:56:31;93462.06;;;-0.82;83.46
52735;BME280;38631;47.572;10.704;2023-02-16T04:58:56;93464.63;;;-1.07;83.70
52735;BME280;38631;47.572;10.704;2023-02-16T05:01:23;93463.78;;;-1.01;83.20
52735;BME280;38631;47.572;10.704;2023-02-16T05:03:48;93462.47;;;-1.17;83.72
52735;BME280;38631;47.572;10.704;2023-02-16T05:06:14;93464.50;;;-1.19;85.34
52735;BME280;38631;47.572;10.704;2023-02-16T05:08:39;93462.34;;;-0.97;84.26
52735;BME280;38631;47.572;10.704;2023-02-16T05:11:05;93460.06;;;-0.87;83.16
52735;BME280;38631;47.572;10.704;2023-02-16T05:13:49;93458.59;;;-0.76;84.08
52735;BME280;38631;47.572;10.704;2023-02-16T05:16:33;93460.75;;;-0.73;83.80
52735;BME280;38631;47.572;10.704;2023-02-16T05:18:59;93464.66;;;-0.82;83.30
52735;BME280;38631;47.572;10.704;2023-02-16T05:21:24;93466.59;;;-0.78;83.28
52735;BME280;38631;47.572;10.704;2023-02-16T05:23:56;93467.56;;;-0.97;83.58
52735;BME280;38631;47.572;10.704;2023-02-16T05:26:22;93469.91;;;-0.89;84.53
52735;BME280;38631;47.572;10.704;2023-02-16T05:28:47;93464.22;;;-0.79;84.13
52735;BME280;38631;47.572;10.704;2023-02-16T05:31:12;93460.50;;;-0.90;83.80
52735;BME280;38631;47.572;10.704;2023-02-16T05:33:38;93468.25;;;-0.83;84.33
52735;BME280;38631;47.572;10.704;2023-02-16T05:36:03;93471.16;;;-0.98;83.63
52735;BME280;38631;47.572;10.704;2023-02-16T05:38:28;93480.28;;;-1.14;84.00
52735;BME280;38631;47.572;10.704;2023-02-16T05:40:54;93483.69;;;-1.14;84.24
52735;BME280;38631;47.572;10.704;2023-02-16T05:43:19;93493.31;;;-1.14;85.55
52735;BME280;38631;47.572;10.704;2023-02-16T05:45:44;93487.00;;;-1.32;85.33
52735;BME280;38631;47.572;10.704;2023-02-16T05:48:10;93486.56;;;-1.22;85.08
52735;BME280;38631;47.572;10.704;2023-02-16T05:50:35;93489.88;;;-1.08;85.14
52735;BME280;38631;47.572;10.704;2023-02-16T05:53:00;93487.63;;;-0.98;84.08
52735;BME280;38631;47.572;10.704;2023-02-16T05:55:27;93491.78;;;-0.90;84.62
52735;BME280;38631;47.572;10.704;2023-02-16T05:57:52;93494.00;;;-0.94;83.57
52735;BME280;38631;47.572;10.704;2023-02-16T06:00:18;93500.63;;;-1.29;83.90
52735;BME280;38631;47.572;10.704;2023-02-16T06:02:43;93498.06;;;-1.94;87.15
52735;BME280;38631;47.572;10.704;2023-02-16T06:05:08;93504.19;;;-1.76;88.25
52735;BME280;38631;47.572;10.704;2023-02-16T06:07:34;93505.72;;;-1.48;86.62
52735;BME280;38631;47.572;10.704;2023-02-16T06:09:59;93517.28;;;-1.37;85.64
52735;BME280;38631;47.572;10.704;2023-02-16T06:12:24;93523.81;;;-1.21;85.04
52735;BME280;38631;47.572;10.704;2023-02-16T06:14:50;93523.56;;;-1.52;86.18
52735;BME280;38631;47.572;10.704;2023-02-16T06:17:15;93529.19;;;-1.61;86.85
52735;BME280;38631;47.572;10.704;2023-02-16T06:19:40;93534.91;;;-1.33;86.51
52735;BME280;38631;47.572;10.704;2023-02-16T06:22:06;93532.38;;;-1.07;86.09
52735;BME280;38631;47.572;10.704;2023-02-16T06:24:31;93535.72;;;-1.00;85.31
52735;BME280;38631;47.572;10.704;2023-02-16T06:26:57;93549.47;;;-0.80;84.85
52735;BME280;38631;47.572;10.704;2023-02-16T06:29:22;93548.75;;;-0.94;83.96
52735;BME280;38631;47.572;10.704;2023-02-16T06:31:47;93547.44;;;-1.10;84.84
52735;BME280;38631;47.572;10.704;2023-02-16T06:34:13;93545.59;;;-1.02;85.62
52735;BME280;38631;47.572;10.704;2023-02-16T06:36:38;93554.75;;;-0.93;85.01
52735;BME280;38631;47.572;10.704;2023-02-16T06:39:03;93544.47;;;-1.20;85.69
52735;BME280;38631;47.572;10.704;2023-02-16T06:41:29;93543.22;;;-1.11;85.70
52735;BME280;38631;47.572;10.704;2023-02-16T06:44:06;93548.16;;;-0.96;85.72
52735;BME280;38631;47.572;10.704;2023-02-16T06:46:32;93544.50;;;-0.88;84.62
52735;BME280;38631;47.572;10.704;2023-02-16T06:48:58;93552.97;;;-0.93;84.40
52735;BME280;38631;47.572;10.704;2023-02-16T06:51:24;93551.38;;;-1.00;85.28
52735;BME280;38631;47.572;10.704;2023-02-16T06:53:49;93550.03;;;-1.10;85.48
52735;BME280;38631;47.572;10.704;2023-02-16T06:56:15;93548.97;;;-0.95;84.95
52735;BME280;38631;47.572;10.704;2023-02-16T06:58:40;93549.16;;;-0.97;85.91
52735;BME280;38631;47.572;10.704;2023-02-16T07:01:05;93548.13;;;-0.89;85.88
52735;BME280;38631;47.572;10.704;2023-02-16T07:03:31;93548.63;;;-0.74;85.98
52735;BME280;38631;47.572;10.704;2023-02-16T07:05:56;93554.69;;;-0.80;85.12
52735;BME280;38631;47.572;10.704;2023-02-16T07:08:21;93554.69;;;-0.80;85.30
52735;BME280;38631;47.572;10.704;2023-02-16T07:10:47;93554.69;;;-0.80;85.49
52735;BME280;38631;47.572;10.704;2023-02-16T07:13:12;93563.44;;;-0.68;84.31
52735;BME280;38631;47.572;10.704;2023-02-16T07:15:38;93566.72;;;-0.47;84.93
52735;BME280;38631;47.572;10.704;2023-02-16T07:18:04;93569.56;;;-0.55;84.31
52735;BME280;38631;47.572;10.704;2023-02-16T07:20:29;93565.97;;;-0.54;84.06
52735;BME280;38631;47.572;10.704;2023-02-16T07:22:55;93577.75;;;-0.45;84.01
52735;BME280;38631;47.572;10.704;2023-02-16T07:25:20;93567.47;;;-0.40;85.34
52735;BME280;38631;47.572;10.704;2023-02-16T07:27:45;93563.59;;;-0.31;84.81
52735;BME280;38631;47.572;10.704;2023-02-16T07:30:11;93562.13;;;-0.20;83.36
52735;BME280;38631;47.572;10.704;2023-02-16T07:32:38;93562.69;;;-0.18;84.17
52735;BME280;38631;47.572;10.704;2023-02-16T07:35:04;93563.69;;;-0.19;83.75
52735;BME280;38631;47.572;10.704;2023-02-16T07:37:29;93570.75;;;-0.19;84.00
52735;BME280;38631;47.572;10.704;2023-02-16T07:39:55;93567.06;;;-0.12;nan
52735;BME280;38631;47.572;10.704;2023-02-16T07:42:20;93568.81;;;-0.06;83.86
52735;BME280;38631;47.572;10.704;2023-02-16T07:44:46;93575.22;;;-0.02;84.56
52735;BME280;38631;47.572;10.704;2023-02-16T07:47:11;93570.63;;;-0.06;83.48
52735;BME280;38631;47.572;10.704;2023-02-16T07:49:38;93567.59;;;-0.03;83.48
52735;BME280;38631;47.572;10.704;2023-02-16T07:52:04;93569.94;;;0.05;83.55
52735;BME280;38631;47.572;10.704;2023-02-16T07:54:30;93570.34;;;0.02;83.42
52735;BME280;38631;47.572;10.704;2023-02-16T07:56:56;93575.72;;;0.07;83.16
52735;BME280;38631;47.572;10.704;2023-02-16T07:59:21;93575.16;;;0.05;84.28
52735;BME280;38631;47.572;10.704;2023-02-16T08:01:47;93573.06;;;0.14;83.06
52735;BME280;38631;47.572;10.704;2023-02-16T08:04:12;93579.19;;;0.26;83.44
52735;BME280;38631;47.572;10.704;2023-02-16T08:06:38;93581.31;;;0.36;82.92
52735;BME280;38631;47.572;10.704;2023-02-16T08:09:04;93576.16;;;0.48;83.07
52735;BME280;38631;47.572;10.704;2023-02-16T08:11:29;93576.09;;;0.54;83.02
52735;BME280;38631;47.572;10.704;2023-02-16T08:13:54;93579.56;;;0.67;83.20
52735;BME280;38631;47.572;10.704;2023-02-16T08:16:25;93579.13;;;0.70;82.07
52735;BME280;38631;47.572;10.704;2023-02-16T08:18:51;93595.78;;;0.75;80.99
52735;BME280;38631;47.572;10.704;2023-02-16T08:21:21;93596.94;;;0.79;80.23
52735;BME280;38631;47.572;10.704;2023-02-16T08:24:14;93597.16;;;0.96;80.40
52735;BME280;38631;47.572;10.704;2023-02-16T08:26:41;93585.28;;;1.12;81.89
52735;BME280;38631;47.572;10.704;2023-02-16T08:29:08;93590.91;;;1.27;81.37
52735;BME280;38631;47.572;10.704;2023-02-16T08:31:34;93591.06;;;1.33;81.12
52735;BME280;38631;47.572;10.704;2023-02-16T08:34:02;93596.66;;;1.36;80.04
52735;BME280;38631;47.572;10.704;2023-02-16T08:36:31;93601.13;;;1.47;78.77
52735;BME280;38631;47.572;10.704;2023-02-16T08:38:58;93599.31;;;1.78;77.18
52735;BME280;38631;47.572;10.704;2023-02-16T08:41:28;93596.09;;;1.76;79.61
52735;BME280;38631;47.572;10.704;2023-02-16T08:43:54;93594.75;;;1.85;79.76
52735;BME280;38631;47.572;10.704;2023-02-16T08:46:19;93593.63;;;1.81;80.44
52735;BME280;38631;47.572;10.704;2023-02-16T08:48:45;93576.41;;;1.85;78.26
52735;BME280;38631;47.572;10.704;2023-02-16T08:51:16;93584.66;;;2.01;78.08
52735;BME280;38631;47.572;10.704;2023-02-16T08:53:43;93581.91;;;2.07;77.39
52735;BME280;38631;47.572;10.704;2023-02-16T08:56:09;93576.13;;;2.17;77.42
52735;BME280;38631;47.572;10.704;2023-02-16T08:58:35;93570.41;;;2.20;77.42
52735;BME280;38631;47.572;10.704;2023-02-16T09:01:05;93577.13;;;2.28;77.06
52735;BME280;38631;47.572;10.704;2023-02-16T09:03:32;93571.59;;;2.36;75.70
52735;BME280;38631;47.572;10.704;2023-02-16T09:06:01;93578.88;;;2.34;73.60
52735;BME280;38631;47.572;10.704;2023-02-16T09:08:27;93585.94;;;2.33;73.39
52735;BME280;38631;47.572;10.704;2023-02-16T09:10:53;93583.19;;;2.28;72.90
52735;BME280;38631;47.572;10.704;2023-02-16T09:13:18;93581.72;;;2.56;72.67
52735;BME280;38631;47.572;10.704;2023-02-16T09:15:44;93573.91;;;2.85;73.77
52735;BME280;38631;47.572;10.704;2023-02-16T09:18:10;93580.41;;;3.34;71.93
52735;BME280;38631;47.572;10.704;2023-02-16T09:20:40;93568.03;;;3.63;69.27
52735;BME280;38631;47.572;10.704;2023-02-16T09:23:06;93574.47;;;3.39;70.27
52735;BME280;38631;47.572;10.704;2023-02-16T09:25:37;93582.97;;;3.17;70.49
52735;BME280;38631;47.572;10.704;2023-02-16T09:28:02;93586.66;;;2.93;70.86
52735;BME280;38631;47.572;10.704;2023-02-16T09:30:28;93578.09;;;3.09;69.72
52735;BME280;38631;47.572;10.704;2023-02-16T09:32:53;93580.25;;;3.12;70.37
52735;BME280;38631;47.572;10.704;2023-02-16T09:35:19;93576.06;;;3.28;71.86
52735;BME280;38631;47.572;10.704;2023-02-16T09:37:45;93582.97;;;3.46;70.91
52735;BME280;38631;47.572;10.704;2023-02-16T09:40:12;93581.69;;;3.49;70.09
52735;BME280;38631;47.572;10.704;2023-02-16T09:43:04;93578.44;;;3.87;70.35
52735;BME280;38631;47.572;10.704;2023-02-16T09:45:38;93575.50;;;4.00;69.84
52735;BME280;38631;47.572;10.704;2023-02-16T09:48:08;93581.63;;;3.89;70.12
52735;BME280;38631;47.572;10.704;2023-02-16T09:50:39;93583.22;;;3.90;68.50
52735;BME280;38631;47.572;10.704;2023-02-16T09:53:07;93579.88;;;3.95;69.49
52735;BME280;38631;47.572;10.704;2023-02-16T09:56:06;93575.25;;;3.85;68.82
52735;BME280;38631;47.572;10.704;2023-02-16T09:58:41;93582.81;;;3.98;69.70
52735;BME280;38631;47.572;10.704;2023-02-16T10:04:39;93574.13;;;4.48;67.98
52735;BME280;38631;47.572;10.704;2023-02-16T10:07:31;93571.22;;;5.06;65.34
52735;BME280;38631;47.572;10.704;2023-02-16T10:10:02;93567.34;;;4.52;66.07
52735;BME280;38631;47.572;10.704;2023-02-16T10:12:32;93570.34;;;4.78;66.01
52735;BME280;38631;47.572;10.704;2023-02-16T10:15:22;93566.88;;;4.55;65.97
52735;BME280;38631;47.572;10.704;2023-02-16T10:18:06;93567.69;;;4.78;64.50
52735;BME280;38631;47.572;10.704;2023-02-16T10:20:42;93560.41;;;4.46;64.80
52735;BME280;38631;47.572;10.704;2023-02-16T10:23:28;93567.78;;;5.27;63.71
52735;BME280;38631;47.572;10.704;2023-02-16T10:28:56;93557.13;;;5.66;59.93
52735;BME280;38631;47.572;10.704;2023-02-16T10:31:29;93557.72;;;5.46;60.90
52735;BME280;38631;47.572;10.704;2023-02-16T10:34:30;93557.25;;;5.05;61.75
52735;BME280;38631;47.572;10.704;2023-02-16T10:47:42;93547.28;;;6.11;59.75
52735;BME280;38631;47.572;10.704;2023-02-16T10:50:41;93549.56;;;5.48;61.74
52735;BME280;38631;47.572;10.704;2023-02-16T10:53:13;93548.44;;;5.66;61.39
52735;BME280;38631;47.572;10.704;2023-02-16T10:55:38;93555.78;;;5.63;61.87
52735;BME280;38631;47.572;10.704;2023-02-16T10:58:04;93545.22;;;6.18;57.86
52735;BME280;38631;47.572;10.704;2023-02-16T11:00:49;93551.00;;;6.15;59.13
52735;BME280;38631;47.572;10.704;2023-02-16T11:03:19;93542.00;;;6.11;58.63
52735;BME280;38631;47.572;10.704;2023-02-16T11:05:47;93548.56;;;6.08;58.14
52735;BME280;38631;47.572;10.704;2023-02-16T11:08:13;93553.06;;;6.08;58.18
52735;BME280;38631;47.572;10.704;2023-02-16T11:10:45;93559.09;;;5.81;59.13
52735;BME280;38631;47.572;10.704;2023-02-16T11:15:50;93554.69;;;6.14;59.12
52735;BME280;38631;47.572;10.704;2023-02-16T11:18:36;93544.75;;;6.68;56.84
52735;BME280;38631;47.572;10.704;2023-02-16T11:21:04;93538.38;;;6.59;57.47
52735;BME280;38631;47.572;10.704;2023-02-16T11:23:38;93541.97;;;6.90;56.57
52735;BME280;38631;47.572;10.704;2023-02-16T11:28:47;93530.09;;;6.40;59.99
52735;BME280;38631;47.572;10.704;2023-02-16T11:33:38;93524.84;;;6.98;58.76
52735;BME280;38631;47.572;10.704;2023-02-16T11:36:38;93528.22;;;7.77;55.28
52735;BME280;38631;47.572;10.704;2023-02-16T11:44:40;93521.34;;;7.55;55.69
52735;BME280;38631;47.572;10.704;2023-02-16T11:47:26;93520.28;;;7.67;56.12
52735;BME280;38631;47.572;10.704;2023-02-16T11:50:21;93516.81;;;7.41;57.22
52735;BME280;38631;47.572;10.704;2023-02-16T11:52:49;93523.13;;;7.40;57.55
52735;BME280;38631;47.572;10.704;2023-02-16T11:55:36;93516.09;;;7.96;57.35
52735;BME280;38631;47.572;10.704;2023-02-16T12:04:02;93501.53;;;8.30;53.49
52735;BME280;38631;47.572;10.704;2023-02-16T12:12:18;93493.06;;;7.51;56.25
52735;BME280;38631;47.572;10.704;2023-02-16T12:14:54;93490.16;;;7.52;56.97
52735;BME280;38631;47.572;10.704;2023-02-16T12:23:24;93473.00;;;8.06;54.75
52735;BME280;38631;47.572;10.704;2023-02-16T12:28:36;93468.75;;;8.31;54.65
52735;BME280;38631;47.572;10.704;2023-02-16T12:31:30;93458.94;;;8.41;52.53
52735;BME280;38631;47.572;10.704;2023-02-16T12:34:14;93459.94;;;8.66;51.66
52735;BME280;38631;47.572;10.704;2023-02-16T12:37:02;93456.84;;;8.23;52.22
52735;BME280;38631;47.572;10.704;2023-02-16T12:39:39;93455.53;;;8.15;52.74
52735;BME280;38631;47.572;10.704;2023-02-16T12:44:45;93445.72;;;8.31;52.86
52735;BME280;38631;47.572;10.704;2023-02-16T12:47:20;93445.44;;;8.53;52.47
52735;BME280;38631;47.572;10.704;2023-02-16T12:49:55;93441.84;;;8.94;50.52
52735;BME280;38631;47.572;10.704;2023-02-16T12:55:19;93441.56;;;9.00;49.98
52735;BME280;38631;47.572;10.704;2023-02-16T13:05:39;93429.34;;;8.99;49.67
52735;BME280;38631;47.572;10.704;2023-02-16T13:08:16;93417.91;;;9.09;49.54
52735;BME280;38631;47.572;10.704;2023-02-16T13:11:02;93418.28;;;9.37;48.58
52735;BME280;38631;47.572;10.704;2023-02-16T13:13:31;93422.59;;;9.22;44.95
52735;BME280;38631;47.572;10.704;2023-02-16T13:16:05;93417.25;;;9.33;47.07
52735;BME280;38631;47.572;10.704;2023-02-16T13:18:36;93410.06;;;9.38;47.21
52735;BME280;38631;47.572;10.704;2023-02-16T13:21:13;93404.78;;;9.38;47.51
52735;BME280;38631;47.572;10.704;2023-02-16T13:24:18;93406.75;;;9.57;47.70
52735;BME280;38631;47.572;10.704;2023-02-16T13:29:53;93392.44;;;9.52;43.54
52735;BME280;38631;47.572;10.704;2023-02-16T13:32:37;93400.34;;;9.23;44.16
52735;BME280;38631;47.572;10.704;2023-02-16T13:43:44;93394.75;;;8.85;42.67
52735;BME280;38631;47.572;10.704;2023-02-16T13:45:49;93383.03;;;8.92;42.71
52735;BME280;38631;47.572;10.704;2023-02-16T13:48:37;93391.75;;;8.97;43.06
52735;BME280;38631;47.572;10.704;2023-02-16T13:51:08;93385.34;;;8.54;44.37
52735;BME280;38631;47.572;10.704;2023-02-16T13:53:38;93380.22;;;8.68;43.53
52735;BME280;38631;47.572;10.704;2023-02-16T13:56:20;93394.53;;;8.72;44.05
52735;BME280;38631;47.572;10.704;2023-02-16T13:58:47;93388.31;;;8.97;43.48
52735;BME280;38631;47.572;10.704;2023-02-16T14:01:34;93394.09;;;9.04;43.75
52735;BME280;38631;47.572;10.704;2023-02-16T14:04:04;93397.00;;;9.02;43.71
52735;BME280;38631;47.572;10.704;2023-02-16T14:06:37;93390.66;;;9.03;43.63
52735;BME280;38631;47.572;10.704;2023-02-16T14:17:22;93385.44;;;8.88;45.07
52735;BME280;38631;47.572;10.704;2023-02-16T14:27:52;93387.13;;;8.69;44.80
52735;BME280;38631;47.572;10.704;2023-02-16T14:30:34;93381.28;;;8.72;45.29
52735;BME280;38631;47.572;10.704;2023-02-16T14:35:35;93369.72;;;8.52;45.64
52735;BME280;38631;47.572;10.704;2023-02-16T14:41:00;93374.69;;;8.64;45.65
52735;BME280;38631;47.572;10.704;2023-02-16T14:43:32;93384.25;;;8.55;45.92
52735;BME280;38631;47.572;10.704;2023-02-16T15:00:16;93393.19;;;8.74;43.83
52735;BME280;38631;47.572;10.704;2023-02-16T15:03:03;93401.09;;;8.84;44.41
52735;BME280;38631;47.572;10.704;2023-02-16T15:05:33;93393.72;;;8.71;44.32
52735;BME280;38631;47.572;10.704;2023-02-16T15:08:17;93397.50;;;8.50;45.90
52735;BME280;38631;47.572;10.704;2023-02-16T15:10:46;93385.28;;;8.64;44.10
52735;BME280;38631;47.572;10.704;2023-02-16T15:13:26;93381.09;;;8.58;44.87
52735;BME280;38631;47.572;10.704;2023-02-16T15:15:55;93393.31;;;8.33;46.03
52735;BME280;38631;47.572;10.704;2023-02-16T15:18:25;93395.97;;;8.28;46.54
52735;BME280;38631;47.572;10.704;2023-02-16T15:20:53;93393.84;;;8.46;45.07
52735;BME280;38631;47.572;10.704;2023-02-16T15:23:22;93391.09;;;8.66;43.71
52735;BME280;38631;47.572;10.704;2023-02-16T15:25:55;93398.88;;;8.32;46.00
52735;BME280;38631;47.572;10.704;2023-02-16T15:28:27;93399.94;;;8.36;45.41